sensor_id;sensor_type;location;lat;lon;timestamp;P1;durP1;ratioP1;P2;durP2;ratioP2
77400;SDS011;66855;45.414;11.082;2023-03-14T00:01:19;18.20;;;9.80;;
77400;SDS011;66855;45.414;11.082;2023-03-14T00:03:46;16.60;;;9.70;;
77400;SDS011;66855;45.414;11.082;2023-03-14T00:06:13;15.60;;;10.50;;
77400;SDS011;66855;45.414;11.082;2023-03-14T00:08:40;15.10;;;10.00;;
77400;SDS011;66855;45.414;11.082;2023-03-14T00:11:10;14.90;;;9.50;;
77400;SDS011;66855;45.414;11.082;2023-03-14T00:13:39;16.30;;;9.80;;
77400;SDS011;66855;45.414;11.082;2023-03-14T00:16:06;13.40;;;9.00;;
77400;SDS011;66855;45.414;11.082;2023-03-14T00:18:36;12.40;;;7.60;;
77400;SDS011;66855;45.414;11.082;2023-03-14T00:21:04;16.50;;;9.90;;
77400;SDS011;66855;45.414;11.082;2023-03-14T00:23:31;13.90;;;9.90;;
77400;SDS011;66855;45.414;11.082;2023-03-14T00:26:02;16.00;;;9.30;;
77400;SDS011;66855;45.414;11.082;2023-03-14T00:28:29;14.20;;;9.90;;
77400;SDS011;66855;45.414;11.082;2023-03-14T00:30:55;16.20;;;9.50;;
77400;SDS011;66855;45.414;11.082;2023-03-14T00:33:22;15.80;;;8.50;;
77400;SDS011;66855;45.414;11.082;2023-03-14T00:35:54;14.80;;;9.00;;
77400;SDS011;66855;45.414;11.082;2023-03-14T00:38:21;13.80;;;9.20;;
77400;SDS011;66855;45.414;11.082;2023-03-14T00:40:47;12.90;;;9.20;;
77400;SDS011;66855;45.414;11.082;2023-03-14T00:43:15;13.20;;;9.80;;
77400;SDS011;66855;45.414;11.082;2023-03-14T00:45:41;15.20;;;10.10;;
77400;SDS011;66855;45.414;11.082;2023-03-14T00:48:07;10.70;;;6.50;;
77400;SDS011;66855;45.414;11.082;2023-03-14T00:50:33;16.00;;;9.30;;
77400;SDS011;66855;45.414;11.082;2023-03-14T00:52:59;9.90;;;7.20;;
77400;SDS011;66855;45.414;11.082;2023-03-14T00:55:25;13.50;;;8.70;;
77400;SDS011;66855;45.414;11.082;2023-03-14T00:57:52;13.50;;;8.60;;
77400;SDS011;66855;45.414;11.082;2023-03-14T01:00:18;12.20;;;8.10;;
77400;SDS011;66855;45.414;11.082;2023-03-14T01:02:44;14.90;;;8.30;;
77400;SDS011;66855;45.414;11.082;2023-03-14T01:05:10;10.50;;;7.50;;
77400;SDS011;66855;45.414;11.082;2023-03-14T01:07:36;14.80;;;7.70;;
77400;SDS011;66855;45.414;11.082;2023-03-14T01:10:04;12.40;;;7.70;;
77400;SDS011;66855;45.414;11.082;2023-03-14T01:12:31;14.20;;;8.30;;
77400;SDS011;66855;45.414;11.082;2023-03-14T01:14:57;11.70;;;7.10;;
77400;SDS011;66855;45.414;11.082;2023-03-14T01:17:24;12.40;;;8.00;;
77400;SDS011;66855;45.414;11.082;2023-03-14T01:19:50;13.80;;;8.20;;
77400;SDS011;66855;45.414;11.082;2023-03-14T01:22:16;12.20;;;7.30;;
77400;SDS011;66855;45.414;11.082;2023-03-14T01:24:42;11.20;;;7.20;;
77400;SDS011;66855;45.414;11.082;2023-03-14T01:27:08;11.00;;;7.50;;
77400;SDS011;66855;45.414;11.082;2023-03-14T01:29:34;10.60;;;7.40;;
77400;SDS011;66855;45.414;11.082;2023-03-14T01:32:00;9.80;;;7.00;;
77400;SDS011;66855;45.414;11.082;2023-03-14T01:34:27;13.10;;;7.30;;
77400;SDS011;66855;45.414;11.082;2023-03-14T01:36:53;10.10;;;6.20;;
77400;SDS011;66855;45.414;11.082;2023-03-14T01:39:19;13.60;;;7.40;;
77400;SDS011;66855;45.414;11.082;2023-03-14T01:41:45;9.40;;;7.10;;
77400;SDS011;66855;45.414;11.082;2023-03-14T01:44:11;10.80;;;6.70;;
77400;SDS011;66855;45.414;11.082;2023-03-14T01:46:42;10.50;;;7.00;;
77400;SDS011;66855;45.414;11.082;2023-03-14T01:49:52;11.00;;;7.70;;
77400;SDS011;66855;45.414;11.082;2023-03-14T01:54:34;10.90;;;7.50;;
77400;SDS011;66855;45.414;11.082;2023-03-14T01:57:05;12.40;;;6.90;;
77400;SDS011;66855;45.414;11.082;2023-03-14T01:59:34;12.40;;;7.60;;
77400;SDS011;66855;45.414;11.082;2023-03-14T02:02:02;10.70;;;6.80;;
77400;SDS011;66855;45.414;11.082;2023-03-14T02:04:34;9.50;;;6.40;;
77400;SDS011;66855;45.414;11.082;2023-03-14T02:07:06;10.10;;;6.60;;
77400;SDS011;66855;45.414;11.082;2023-03-14T02:09:39;10.30;;;6.00;;
77400;SDS011;66855;45.414;11.082;2023-03-14T02:12:08;10.20;;;6.10;;
77400;SDS011;66855;45.414;11.082;2023-03-14T02:14:47;8.50;;;4.60;;
77400;SDS011;66855;45.414;11.082;2023-03-14T02:17:24;8.60;;;6.10;;
77400;SDS011;66855;45.414;11.082;2023-03-14T02:22:54;9.50;;;5.80;;
77400;SDS011;66855;45.414;11.082;2023-03-14T02:25:25;8.80;;;5.20;;
77400;SDS011;66855;45.414;11.082;2023-03-14T02:27:58;10.60;;;6.90;;
77400;SDS011;66855;45.414;11.082;2023-03-14T02:30:25;9.30;;;6.30;;
77400;SDS011;66855;45.414;11.082;2023-03-14T02:33:03;8.80;;;6.10;;
77400;SDS011;66855;45.414;11.082;2023-03-14T02:35:42;10.60;;;6.30;;
77400;SDS011;66855;45.414;11.082;2023-03-14T02:40:42;13.10;;;6.10;;
77400;SDS011;66855;45.414;11.082;2023-03-14T02:43:08;11.10;;;6.50;;
77400;SDS011;66855;45.414;11.082;2023-03-14T02:48:05;12.00;;;6.80;;
77400;SDS011;66855;45.414;11.082;2023-03-14T02:50:35;9.70;;;5.90;;
77400;SDS011;66855;45.414;11.082;2023-03-14T02:53:01;10.90;;;6.80;;
77400;SDS011;66855;45.414;11.082;2023-03-14T02:55:28;9.60;;;6.10;;
77400;SDS011;66855;45.414;11.082;2023-03-14T02:57:57;9.80;;;5.90;;
77400;SDS011;66855;45.414;11.082;2023-03-14T03:00:24;12.80;;;6.70;;
77400;SDS011;66855;45.414;11.082;2023-03-14T03:02:51;12.10;;;5.90;;
77400;SDS011;66855;45.414;11.082;2023-03-14T03:05:17;9.80;;;6.50;;
77400;SDS011;66855;45.414;11.082;2023-03-14T03:07:43;13.70;;;6.70;;
77400;SDS011;66855;45.414;11.082;2023-03-14T03:10:10;10.50;;;6.50;;
77400;SDS011;66855;45.414;11.082;2023-03-14T03:12:36;9.40;;;6.00;;
77400;SDS011;66855;45.414;11.082;2023-03-14T03:15:03;10.20;;;6.00;;
77400;SDS011;66855;45.414;11.082;2023-03-14T03:17:32;10.40;;;6.30;;
77400;SDS011;66855;45.414;11.082;2023-03-14T03:19:58;10.60;;;6.20;;
77400;SDS011;66855;45.414;11.082;2023-03-14T03:22:24;9.30;;;5.70;;
77400;SDS011;66855;45.414;11.082;2023-03-14T03:24:50;10.30;;;5.80;;
77400;SDS011;66855;45.414;11.082;2023-03-14T03:27:16;9.80;;;6.20;;
77400;SDS011;66855;45.414;11.082;2023-03-14T03:29:43;9.50;;;6.20;;
77400;SDS011;66855;45.414;11.082;2023-03-14T03:32:09;12.60;;;6.30;;
77400;SDS011;66855;45.414;11.082;2023-03-14T03:34:35;11.10;;;6.20;;
77400;SDS011;66855;45.414;11.082;2023-03-14T03:37:01;12.20;;;7.00;;
77400;SDS011;66855;45.414;11.082;2023-03-14T03:39:28;11.80;;;7.30;;
77400;SDS011;66855;45.414;11.082;2023-03-14T03:41:55;9.00;;;6.40;;
77400;SDS011;66855;45.414;11.082;2023-03-14T03:44:21;11.10;;;6.20;;
77400;SDS011;66855;45.414;11.082;2023-03-14T03:46:47;6.70;;;4.90;;
77400;SDS011;66855;45.414;11.082;2023-03-14T03:49:13;9.50;;;5.70;;
77400;SDS011;66855;45.414;11.082;2023-03-14T03:51:40;9.10;;;6.30;;
77400;SDS011;66855;45.414;11.082;2023-03-14T03:54:06;8.20;;;5.70;;
77400;SDS011;66855;45.414;11.082;2023-03-14T03:56:32;9.20;;;6.00;;
77400;SDS011;66855;45.414;11.082;2023-03-14T03:58:59;7.70;;;4.70;;
77400;SDS011;66855;45.414;11.082;2023-03-14T04:01:25;12.10;;;6.70;;
77400;SDS011;66855;45.414;11.082;2023-03-14T04:03:51;10.10;;;6.20;;
77400;SDS011;66855;45.414;11.082;2023-03-14T04:06:18;9.80;;;6.10;;
77400;SDS011;66855;45.414;11.082;2023-03-14T04:08:46;10.60;;;6.30;;
77400;SDS011;66855;45.414;11.082;2023-03-14T04:11:35;10.00;;;6.00;;
77400;SDS011;66855;45.414;11.082;2023-03-14T04:14:30;9.40;;;6.10;;
77400;SDS011;66855;45.414;11.082;2023-03-14T04:17:11;10.70;;;5.70;;
77400;SDS011;66855;45.414;11.082;2023-03-14T04:19:37;10.50;;;6.30;;
77400;SDS011;66855;45.414;11.082;2023-03-14T04:22:04;11.30;;;7.10;;
77400;SDS011;66855;45.414;11.082;2023-03-14T04:24:34;12.70;;;5.90;;
77400;SDS011;66855;45.414;11.082;2023-03-14T04:27:01;10.20;;;6.10;;
77400;SDS011;66855;45.414;11.082;2023-03-14T04:29:27;10.30;;;6.00;;
77400;SDS011;66855;45.414;11.082;2023-03-14T04:31:53;11.20;;;5.70;;
77400;SDS011;66855;45.414;11.082;2023-03-14T04:34:20;8.70;;;5.40;;
77400;SDS011;66855;45.414;11.082;2023-03-14T04:36:50;10.40;;;6.30;;
77400;SDS011;66855;45.414;11.082;2023-03-14T04:39:20;7.60;;;5.10;;
77400;SDS011;66855;45.414;11.082;2023-03-14T04:41:55;7.90;;;5.50;;
77400;SDS011;66855;45.414;11.082;2023-03-14T04:44:21;11.70;;;5.40;;
77400;SDS011;66855;45.414;11.082;2023-03-14T04:46:49;10.90;;;5.50;;
77400;SDS011;66855;45.414;11.082;2023-03-14T04:49:15;9.30;;;5.60;;
77400;SDS011;66855;45.414;11.082;2023-03-14T04:51:41;9.90;;;5.30;;
77400;SDS011;66855;45.414;11.082;2023-03-14T04:54:08;9.90;;;5.60;;
77400;SDS011;66855;45.414;11.082;2023-03-14T04:56:34;7.70;;;4.40;;
77400;SDS011;66855;45.414;11.082;2023-03-14T04:59:01;10.20;;;5.30;;
77400;SDS011;66855;45.414;11.082;2023-03-14T05:01:28;10.10;;;5.50;;
77400;SDS011;66855;45.414;11.082;2023-03-14T05:04:02;10.90;;;4.40;;
77400;SDS011;66855;45.414;11.082;2023-03-14T05:06:46;10.10;;;4.50;;
77400;SDS011;66855;45.414;11.082;2023-03-14T05:09:44;15.20;;;5.70;;
77400;SDS011;66855;45.414;11.082;2023-03-14T05:12:12;8.80;;;4.70;;
77400;SDS011;66855;45.414;11.082;2023-03-14T05:15:00;7.30;;;3.80;;
77400;SDS011;66855;45.414;11.082;2023-03-14T05:17:58;8.30;;;4.40;;
77400;SDS011;66855;45.414;11.082;2023-03-14T05:20:35;9.20;;;4.40;;
77400;SDS011;66855;45.414;11.082;2023-03-14T05:23:36;8.40;;;4.20;;
77400;SDS011;66855;45.414;11.082;2023-03-14T05:26:21;6.10;;;3.40;;
77400;SDS011;66855;45.414;11.082;2023-03-14T05:29:11;11.30;;;4.50;;
77400;SDS011;66855;45.414;11.082;2023-03-14T05:31:48;8.00;;;4.00;;
77400;SDS011;66855;45.414;11.082;2023-03-14T05:34:33;8.60;;;4.20;;
77400;SDS011;66855;45.414;11.082;2023-03-14T05:37:34;7.80;;;4.50;;
77400;SDS011;66855;45.414;11.082;2023-03-14T05:40:18;7.60;;;5.10;;
77400;SDS011;66855;45.414;11.082;2023-03-14T05:43:16;9.40;;;5.30;;
77400;SDS011;66855;45.414;11.082;2023-03-14T05:45:51;7.70;;;4.80;;
77400;SDS011;66855;45.414;11.082;2023-03-14T05:48:46;10.60;;;5.30;;
77400;SDS011;66855;45.414;11.082;2023-03-14T05:51:12;12.20;;;5.50;;
77400;SDS011;66855;45.414;11.082;2023-03-14T05:54:01;9.60;;;5.20;;
77400;SDS011;66855;45.414;11.082;2023-03-14T05:56:45;7.20;;;4.60;;
77400;SDS011;66855;45.414;11.082;2023-03-14T05:59:11;7.10;;;4.90;;
77400;SDS011;66855;45.414;11.082;2023-03-14T06:01:44;9.20;;;4.30;;
77400;SDS011;66855;45.414;11.082;2023-03-14T06:04:15;11.20;;;4.80;;
77400;SDS011;66855;45.414;11.082;2023-03-14T06:06:42;10.10;;;4.60;;
77400;SDS011;66855;45.414;11.082;2023-03-14T06:09:09;8.20;;;4.80;;
77400;SDS011;66855;45.414;11.082;2023-03-14T06:11:36;11.50;;;4.90;;
77400;SDS011;66855;45.414;11.082;2023-03-14T06:14:03;13.80;;;6.40;;
77400;SDS011;66855;45.414;11.082;2023-03-14T06:16:29;10.10;;;6.30;;
77400;SDS011;66855;45.414;11.082;2023-03-14T06:18:55;8.20;;;5.40;;
77400;SDS011;66855;45.414;11.082;2023-03-14T06:21:22;13.40;;;6.30;;
77400;SDS011;66855;45.414;11.082;2023-03-14T06:23:48;10.90;;;5.60;;
77400;SDS011;66855;45.414;11.082;2023-03-14T06:26:15;8.40;;;5.00;;
77400;SDS011;66855;45.414;11.082;2023-03-14T06:28:42;12.10;;;6.30;;
77400;SDS011;66855;45.414;11.082;2023-03-14T06:31:08;5.80;;;3.10;;
77400;SDS011;66855;45.414;11.082;2023-03-14T06:33:40;12.10;;;5.40;;
77400;SDS011;66855;45.414;11.082;2023-03-14T06:36:07;8.70;;;5.10;;
77400;SDS011;66855;45.414;11.082;2023-03-14T06:38:34;10.20;;;5.50;;
77400;SDS011;66855;45.414;11.082;2023-03-14T06:41:04;10.10;;;5.00;;
77400;SDS011;66855;45.414;11.082;2023-03-14T06:43:36;8.00;;;5.20;;
77400;SDS011;66855;45.414;11.082;2023-03-14T06:46:02;13.00;;;6.40;;
77400;SDS011;66855;45.414;11.082;2023-03-14T06:48:31;6.60;;;4.30;;
77400;SDS011;66855;45.414;11.082;2023-03-14T06:50:57;9.70;;;5.70;;
77400;SDS011;66855;45.414;11.082;2023-03-14T06:53:23;9.30;;;5.10;;
77400;SDS011;66855;45.414;11.082;2023-03-14T06:55:49;11.00;;;5.00;;
77400;SDS011;66855;45.414;11.082;2023-03-14T06:58:16;12.50;;;6.30;;
77400;SDS011;66855;45.414;11.082;2023-03-14T07:00:44;12.50;;;6.00;;
77400;SDS011;66855;45.414;11.082;2023-03-14T07:03:12;9.90;;;6.40;;
77400;SDS011;66855;45.414;11.082;2023-03-14T07:05:41;12.10;;;6.10;;
77400;SDS011;66855;45.414;11.082;2023-03-14T07:08:07;11.30;;;5.60;;
77400;SDS011;66855;45.414;11.082;2023-03-14T07:10:34;12.40;;;5.70;;
77400;SDS011;66855;45.414;11.082;2023-03-14T07:13:00;13.70;;;5.80;;
77400;SDS011;66855;45.414;11.082;2023-03-14T07:15:29;10.00;;;5.20;;
77400;SDS011;66855;45.414;11.082;2023-03-14T07:17:58;11.50;;;5.20;;
77400;SDS011;66855;45.414;11.082;2023-03-14T07:20:24;9.20;;;4.00;;
77400;SDS011;66855;45.414;11.082;2023-03-14T07:22:51;12.60;;;4.90;;
77400;SDS011;66855;45.414;11.082;2023-03-14T07:25:21;8.10;;;4.50;;
77400;SDS011;66855;45.414;11.082;2023-03-14T07:27:47;8.50;;;4.70;;
77400;SDS011;66855;45.414;11.082;2023-03-14T07:30:16;7.90;;;4.20;;
77400;SDS011;66855;45.414;11.082;2023-03-14T07:32:43;10.00;;;4.80;;
77400;SDS011;66855;45.414;11.082;2023-03-14T07:35:10;10.90;;;4.90;;
77400;SDS011;66855;45.414;11.082;2023-03-14T07:37:37;12.50;;;5.30;;
77400;SDS011;66855;45.414;11.082;2023-03-14T07:40:04;7.60;;;4.10;;
77400;SDS011;66855;45.414;11.082;2023-03-14T07:42:33;8.70;;;4.30;;
77400;SDS011;66855;45.414;11.082;2023-03-14T07:45:14;5.90;;;3.10;;
77400;SDS011;66855;45.414;11.082;2023-03-14T07:47:40;9.40;;;4.80;;
77400;SDS011;66855;45.414;11.082;2023-03-14T07:50:06;7.60;;;4.60;;
77400;SDS011;66855;45.414;11.082;2023-03-14T07:52:33;11.40;;;4.80;;
77400;SDS011;66855;45.414;11.082;2023-03-14T07:54:59;7.40;;;3.40;;
77400;SDS011;66855;45.414;11.082;2023-03-14T07:57:26;8.90;;;4.30;;
77400;SDS011;66855;45.414;11.082;2023-03-14T07:59:52;5.40;;;2.10;;
77400;SDS011;66855;45.414;11.082;2023-03-14T08:02:18;8.20;;;4.10;;
77400;SDS011;66855;45.414;11.082;2023-03-14T08:04:47;6.50;;;3.50;;
77400;SDS011;66855;45.414;11.082;2023-03-14T08:07:14;9.00;;;4.10;;
77400;SDS011;66855;45.414;11.082;2023-03-14T08:09:41;6.80;;;4.10;;
77400;SDS011;66855;45.414;11.082;2023-03-14T08:12:07;6.80;;;4.00;;
77400;SDS011;66855;45.414;11.082;2023-03-14T08:14:33;13.40;;;4.60;;
77400;SDS011;66855;45.414;11.082;2023-03-14T08:17:00;8.00;;;4.00;;
77400;SDS011;66855;45.414;11.082;2023-03-14T08:19:27;9.10;;;3.90;;
77400;SDS011;66855;45.414;11.082;2023-03-14T08:21:53;6.60;;;3.60;;
77400;SDS011;66855;45.414;11.082;2023-03-14T08:24:19;8.50;;;4.20;;
77400;SDS011;66855;45.414;11.082;2023-03-14T08:26:45;8.40;;;4.10;;
77400;SDS011;66855;45.414;11.082;2023-03-14T08:29:11;6.30;;;3.70;;
77400;SDS011;66855;45.414;11.082;2023-03-14T08:31:38;5.80;;;3.60;;
77400;SDS011;66855;45.414;11.082;2023-03-14T08:34:04;6.10;;;3.90;;
77400;SDS011;66855;45.414;11.082;2023-03-14T08:36:32;8.70;;;4.20;;
77400;SDS011;66855;45.414;11.082;2023-03-14T08:38:59;9.40;;;4.00;;
77400;SDS011;66855;45.414;11.082;2023-03-14T08:41:25;8.40;;;3.60;;
77400;SDS011;66855;45.414;11.082;2023-03-14T08:43:51;8.30;;;3.60;;
77400;SDS011;66855;45.414;11.082;2023-03-14T08:46:17;8.40;;;3.80;;
77400;SDS011;66855;45.414;11.082;2023-03-14T08:48:43;6.30;;;3.20;;
77400;SDS011;66855;45.414;11.082;2023-03-14T08:51:10;7.20;;;3.20;;
77400;SDS011;66855;45.414;11.082;2023-03-14T08:53:38;6.40;;;3.30;;
77400;SDS011;66855;45.414;11.082;2023-03-14T08:56:05;6.70;;;3.30;;
77400;SDS011;66855;45.414;11.082;2023-03-14T08:58:32;5.70;;;3.50;;
77400;SDS011;66855;45.414;11.082;2023-03-14T09:00:58;5.60;;;2.80;;
77400;SDS011;66855;45.414;11.082;2023-03-14T09:03:25;7.50;;;3.60;;
77400;SDS011;66855;45.414;11.082;2023-03-14T09:05:51;3.90;;;2.40;;
77400;SDS011;66855;45.414;11.082;2023-03-14T09:08:17;5.40;;;3.20;;
77400;SDS011;66855;45.414;11.082;2023-03-14T09:10:44;7.20;;;3.40;;
77400;SDS011;66855;45.414;11.082;2023-03-14T09:13:10;5.50;;;3.70;;
77400;SDS011;66855;45.414;11.082;2023-03-14T09:15:36;7.90;;;4.70;;
77400;SDS011;66855;45.414;11.082;2023-03-14T09:18:02;6.90;;;3.40;;
77400;SDS011;66855;45.414;11.082;2023-03-14T09:20:28;7.70;;;4.30;;
77400;SDS011;66855;45.414;11.082;2023-03-14T09:22:54;5.10;;;3.40;;
77400;SDS011;66855;45.414;11.082;2023-03-14T09:25:20;5.10;;;3.30;;
77400;SDS011;66855;45.414;11.082;2023-03-14T09:27:46;4.70;;;3.00;;
77400;SDS011;66855;45.414;11.082;2023-03-14T09:30:12;4.30;;;2.90;;
77400;SDS011;66855;45.414;11.082;2023-03-14T09:32:39;5.00;;;3.10;;
77400;SDS011;66855;45.414;11.082;2023-03-14T09:35:05;4.10;;;2.40;;
77400;SDS011;66855;45.414;11.082;2023-03-14T09:37:31;5.50;;;3.00;;
77400;SDS011;66855;45.414;11.082;2023-03-14T09:39:57;5.10;;;3.00;;
77400;SDS011;66855;45.414;11.082;2023-03-14T09:42:24;3.70;;;2.10;;
77400;SDS011;66855;45.414;11.082;2023-03-14T09:45:00;6.60;;;3.60;;
77400;SDS011;66855;45.414;11.082;2023-03-14T09:47:31;4.80;;;3.00;;
77400;SDS011;66855;45.414;11.082;2023-03-14T09:49:59;5.60;;;2.90;;
77400;SDS011;66855;45.414;11.082;2023-03-14T09:52:30;5.00;;;3.60;;
77400;SDS011;66855;45.414;11.082;2023-03-14T09:55:07;4.20;;;2.30;;
77400;SDS011;66855;45.414;11.082;2023-03-14T09:57:39;5.70;;;3.40;;
77400;SDS011;66855;45.414;11.082;2023-03-14T10:00:20;4.90;;;2.80;;
77400;SDS011;66855;45.414;11.082;2023-03-14T10:03:00;4.00;;;2.80;;
77400;SDS011;66855;45.414;11.082;2023-03-14T10:05:28;3.70;;;2.30;;
77400;SDS011;66855;45.414;11.082;2023-03-14T10:07:55;4.20;;;2.30;;
77400;SDS011;66855;45.414;11.082;2023-03-14T10:10:25;5.30;;;3.10;;
77400;SDS011;66855;45.414;11.082;2023-03-14T10:12:55;7.00;;;3.50;;
77400;SDS011;66855;45.414;11.082;2023-03-14T10:15:25;6.50;;;2.60;;
77400;SDS011;66855;45.414;11.082;2023-03-14T10:17:54;4.90;;;3.10;;
77400;SDS011;66855;45.414;11.082;2023-03-14T10:25:41;6.00;;;3.40;;
77400;SDS011;66855;45.414;11.082;2023-03-14T10:28:28;6.70;;;2.90;;
77400;SDS011;66855;45.414;11.082;2023-03-14T10:30:56;4.90;;;2.90;;
77400;SDS011;66855;45.414;11.082;2023-03-14T10:33:33;5.00;;;2.80;;
77400;SDS011;66855;45.414;11.082;2023-03-14T10:36:01;5.80;;;3.20;;
77400;SDS011;66855;45.414;11.082;2023-03-14T10:38:33;4.40;;;2.90;;
77400;SDS011;66855;45.414;11.082;2023-03-14T10:41:01;4.60;;;2.80;;
77400;SDS011;66855;45.414;11.082;2023-03-14T10:43:33;5.90;;;3.00;;
77400;SDS011;66855;45.414;11.082;2023-03-14T10:51:04;7.30;;;3.30;;
77400;SDS011;66855;45.414;11.082;2023-03-14T10:53:34;4.80;;;3.10;;
77400;SDS011;66855;45.414;11.082;2023-03-14T10:56:18;5.50;;;3.40;;
77400;SDS011;66855;45.414;11.082;2023-03-14T10:58:47;5.30;;;2.70;;
77400;SDS011;66855;45.414;11.082;2023-03-14T11:01:28;6.60;;;3.70;;
77400;SDS011;66855;45.414;11.082;2023-03-14T11:12:57;4.20;;;2.80;;
77400;SDS011;66855;45.414;11.082;2023-03-14T11:15:34;4.30;;;3.00;;
77400;SDS011;66855;45.414;11.082;2023-03-14T11:21:25;6.20;;;3.10;;
77400;SDS011;66855;45.414;11.082;2023-03-14T11:32:02;4.90;;;2.80;;
77400;SDS011;66855;45.414;11.082;2023-03-14T11:34:39;4.20;;;3.10;;
77400;SDS011;66855;45.414;11.082;2023-03-14T11:37:13;4.70;;;3.20;;
77400;SDS011;66855;45.414;11.082;2023-03-14T11:39:47;5.20;;;3.40;;
77400;SDS011;66855;45.414;11.082;2023-03-14T11:42:19;5.80;;;3.70;;
77400;SDS011;66855;45.414;11.082;2023-03-14T11:44:47;4.00;;;2.90;;
77400;SDS011;66855;45.414;11.082;2023-03-14T11:47:15;3.60;;;3.20;;
77400;SDS011;66855;45.414;11.082;2023-03-14T11:49:45;4.30;;;3.20;;
77400;SDS011;66855;45.414;11.082;2023-03-14T11:52:32;6.20;;;4.00;;
77400;SDS011;66855;45.414;11.082;2023-03-14T11:55:04;5.30;;;3.70;;
77400;SDS011;66855;45.414;11.082;2023-03-14T11:57:31;4.70;;;3.70;;
77400;SDS011;66855;45.414;11.082;2023-03-14T12:02:56;4.90;;;3.30;;
77400;SDS011;66855;45.414;11.082;2023-03-14T12:08:19;5.30;;;4.00;;
77400;SDS011;66855;45.414;11.082;2023-03-14T12:10:52;5.90;;;4.10;;
77400;SDS011;66855;45.414;11.082;2023-03-14T12:13:20;5.40;;;3.90;;
77400;SDS011;66855;45.414;11.082;2023-03-14T12:15:57;5.70;;;4.20;;
77400;SDS011;66855;45.414;11.082;2023-03-14T12:18:28;5.30;;;4.40;;
77400;SDS011;66855;45.414;11.082;2023-03-14T12:20:57;6.80;;;5.00;;
77400;SDS011;66855;45.414;11.082;2023-03-14T12:23:25;8.30;;;4.90;;
77400;SDS011;66855;45.414;11.082;2023-03-14T12:26:15;6.70;;;4.50;;
77400;SDS011;66855;45.414;11.082;2023-03-14T12:29:28;4.40;;;3.60;;
77400;SDS011;66855;45.414;11.082;2023-03-14T12:34:03;6.50;;;4.10;;
77400;SDS011;66855;45.414;11.082;2023-03-14T12:36:48;6.00;;;3.60;;
77400;SDS011;66855;45.414;11.082;2023-03-14T12:42:21;5.60;;;3.20;;
77400;SDS011;66855;45.414;11.082;2023-03-14T12:47:56;3.30;;;1.90;;
77400;SDS011;66855;45.414;11.082;2023-03-14T12:50:33;5.10;;;3.10;;
77400;SDS011;66855;45.414;11.082;2023-03-14T12:55:55;3.50;;;2.90;;
77400;SDS011;66855;45.414;11.082;2023-03-14T13:01:47;2.70;;;2.50;;
77400;SDS011;66855;45.414;11.082;2023-03-14T13:04:18;3.60;;;2.40;;
77400;SDS011;66855;45.414;11.082;2023-03-14T13:06:58;2.60;;;2.40;;
77400;SDS011;66855;45.414;11.082;2023-03-14T13:11:52;2.30;;;1.90;;
77400;SDS011;66855;45.414;11.082;2023-03-14T13:14:19;2.90;;;2.00;;
77400;SDS011;66855;45.414;11.082;2023-03-14T13:16:46;2.90;;;1.90;;
77400;SDS011;66855;45.414;11.082;2023-03-14T13:19:23;2.40;;;1.70;;
77400;SDS011;66855;45.414;11.082;2023-03-14T13:22:02;1.90;;;1.70;;
77400;SDS011;66855;45.414;11.082;2023-03-14T13:24:32;2.60;;;2.60;;
77400;SDS011;66855;45.414;11.082;2023-03-14T13:26:59;3.00;;;1.80;;
77400;SDS011;66855;45.414;11.082;2023-03-14T13:29:29;2.70;;;2.10;;
77400;SDS011;66855;45.414;11.082;2023-03-14T13:32:00;2.80;;;2.10;;
77400;SDS011;66855;45.414;11.082;2023-03-14T13:34:33;2.70;;;2.00;;
77400;SDS011;66855;45.414;11.082;2023-03-14T13:37:00;3.10;;;2.40;;
77400;SDS011;66855;45.414;11.082;2023-03-14T13:39:27;4.10;;;2.50;;
77400;SDS011;66855;45.414;11.082;2023-03-14T13:41:58;3.00;;;3.90;;
77400;SDS011;66855;45.414;11.082;2023-03-14T13:46:58;3.10;;;2.00;;
77400;SDS011;66855;45.414;11.082;2023-03-14T13:49:25;3.20;;;2.20;;
77400;SDS011;66855;45.414;11.082;2023-03-14T13:51:52;3.10;;;2.00;;
77400;SDS011;66855;45.414;11.082;2023-03-14T13:54:19;2.50;;;1.60;;
77400;SDS011;66855;45.414;11.082;2023-03-14T13:56:46;2.30;;;1.50;;
77400;SDS011;66855;45.414;11.082;2023-03-14T13:59:26;2.80;;;1.90;;
77400;SDS011;66855;45.414;11.082;2023-03-14T14:01:56;2.30;;;1.50;;
77400;SDS011;66855;45.414;11.082;2023-03-14T14:04:24;2.10;;;1.80;;
77400;SDS011;66855;45.414;11.082;2023-03-14T14:06:53;2.10;;;1.60;;
77400;SDS011;66855;45.414;11.082;2023-03-14T14:09:22;2.40;;;1.90;;
77400;SDS011;66855;45.414;11.082;2023-03-14T14:11:57;2.40;;;2.10;;
77400;SDS011;66855;45.414;11.082;2023-03-14T14:17:10;4.20;;;2.20;;
77400;SDS011;66855;45.414;11.082;2023-03-14T14:19:37;3.40;;;2.60;;
77400;SDS011;66855;45.414;11.082;2023-03-14T14:22:05;2.30;;;2.10;;
77400;SDS011;66855;45.414;11.082;2023-03-14T14:24:32;2.80;;;2.60;;
77400;SDS011;66855;45.414;11.082;2023-03-14T14:27:00;3.10;;;2.20;;
77400;SDS011;66855;45.414;11.082;2023-03-14T14:30:35;2.30;;;2.10;;
77400;SDS011;66855;45.414;11.082;2023-03-14T14:32:45;3.30;;;1.90;;
77400;SDS011;66855;45.414;11.082;2023-03-14T14:35:23;2.00;;;1.90;;
77400;SDS011;66855;45.414;11.082;2023-03-14T14:37:50;1.60;;;1.50;;
77400;SDS011;66855;45.414;11.082;2023-03-14T14:40:20;1.50;;;1.40;;
77400;SDS011;66855;45.414;11.082;2023-03-14T14:45:22;2.30;;;1.30;;
77400;SDS011;66855;45.414;11.082;2023-03-14T14:47:53;2.50;;;1.40;;
77400;SDS011;66855;45.414;11.082;2023-03-14T14:50:30;2.00;;;1.30;;
77400;SDS011;66855;45.414;11.082;2023-03-14T14:52:58;1.80;;;1.30;;
77400;SDS011;66855;45.414;11.082;2023-03-14T14:55:29;2.00;;;1.80;;
77400;SDS011;66855;45.414;11.082;2023-03-14T14:57:58;1.20;;;1.00;;
77400;SDS011;66855;45.414;11.082;2023-03-14T15:01:18;1.00;;;0.90;;
77400;SDS011;66855;45.414;11.082;2023-03-14T15:03:49;1.40;;;1.20;;
77400;SDS011;66855;45.414;11.082;2023-03-14T15:06:17;1.50;;;1.30;;
77400;SDS011;66855;45.414;11.082;2023-03-14T15:08:44;1.70;;;1.50;;
77400;SDS011;66855;45.414;11.082;2023-03-14T15:13:51;1.60;;;1.40;;
77400;SDS011;66855;45.414;11.082;2023-03-14T15:16:26;2.70;;;1.30;;
77400;SDS011;66855;45.414;11.082;2023-03-14T15:18:54;2.70;;;1.50;;
77400;SDS011;66855;45.414;11.082;2023-03-14T15:21:22;2.40;;;1.60;;
77400;SDS011;66855;45.414;11.082;2023-03-14T15:23:50;2.40;;;1.50;;
77400;SDS011;66855;45.414;11.082;2023-03-14T15:26:17;2.50;;;1.50;;
77400;SDS011;66855;45.414;11.082;2023-03-14T15:31:12;2.60;;;1.70;;
77400;SDS011;66855;45.414;11.082;2023-03-14T15:33:39;2.50;;;1.60;;
77400;SDS011;66855;45.414;11.082;2023-03-14T15:36:28;2.50;;;1.50;;
77400;SDS011;66855;45.414;11.082;2023-03-14T15:38:56;1.50;;;1.10;;
77400;SDS011;66855;45.414;11.082;2023-03-14T15:41:23;1.70;;;1.40;;
77400;SDS011;66855;45.414;11.082;2023-03-14T15:43:49;2.10;;;1.80;;
77400;SDS011;66855;45.414;11.082;2023-03-14T15:46:16;3.20;;;1.60;;
77400;SDS011;66855;45.414;11.082;2023-03-14T15:48:44;2.40;;;1.60;;
77400;SDS011;66855;45.414;11.082;2023-03-14T15:51:10;2.40;;;1.60;;
77400;SDS011;66855;45.414;11.082;2023-03-14T15:53:36;2.20;;;1.40;;
77400;SDS011;66855;45.414;11.082;2023-03-14T15:56:07;3.10;;;1.60;;
77400;SDS011;66855;45.414;11.082;2023-03-14T15:58:38;1.90;;;1.30;;
77400;SDS011;66855;45.414;11.082;2023-03-14T16:01:06;2.10;;;1.50;;
77400;SDS011;66855;45.414;11.082;2023-03-14T16:03:36;1.50;;;1.30;;
77400;SDS011;66855;45.414;11.082;2023-03-14T16:06:03;1.60;;;1.40;;